sensor_id;sensor_type;location;lat;lon;timestamp;temperature;humidity
70593;DHT22;58294;42.988;20.338;2023-03-16T00:00:23;128.40;2099.20
70593;DHT22;58294;42.988;20.338;2023-03-16T00:02:48;128.50;2099.20
70593;DHT22;58294;42.988;20.338;2023-03-16T00:05:14;128.50;2048.00
70593;DHT22;58294;42.988;20.338;2023-03-16T00:07:40;128.60;2048.00
70593;DHT22;58294;42.988;20.338;2023-03-16T00:10:06;128.60;1996.80
70593;DHT22;58294;42.988;20.338;2023-03-16T00:12:32;128.50;2022.40
70593;DHT22;58294;42.988;20.338;2023-03-16T00:14:59;128.50;2048.00
70593;DHT22;58294;42.988;20.338;2023-03-16T00:17:25;128.50;2048.00
70593;DHT22;58294;42.988;20.338;2023-03-16T00:19:52;128.50;2048.00
70593;DHT22;58294;42.988;20.338;2023-03-16T00:22:26;128.50;2048.00
70593;DHT22;58294;42.988;20.338;2023-03-16T00:24:51;128.50;2099.20
70593;DHT22;58294;42.988;20.338;2023-03-16T00:27:17;128.50;2099.20
70593;DHT22;58294;42.988;20.338;2023-03-16T00:29:44;128.50;2048.00
70593;DHT22;58294;42.988;20.338;2023-03-16T00:32:14;128.60;1996.80
70593;DHT22;58294;42.988;20.338;2023-03-16T00:34:41;128.50;2022.40
70593;DHT22;58294;42.988;20.338;2023-03-16T00:37:06;128.50;2022.40
70593;DHT22;58294;42.988;20.338;2023-03-16T00:39:32;128.50;2048.00
70593;DHT22;58294;42.988;20.338;2023-03-16T00:42:02;128.50;2048.00
70593;DHT22;58294;42.988;20.338;2023-03-16T00:44:28;128.40;2022.40
70593;DHT22;58294;42.988;20.338;2023-03-16T00:46:54;128.30;2022.40
70593;DHT22;58294;42.988;20.338;2023-03-16T00:49:19;128.40;2048.00
70593;DHT22;58294;42.988;20.338;2023-03-16T00:51:46;128.30;2022.40
70593;DHT22;58294;42.988;20.338;2023-03-16T00:54:12;128.20;1996.80
70593;DHT22;58294;42.988;20.338;2023-03-16T00:56:37;128.20;2022.40
70593;DHT22;58294;42.988;20.338;2023-03-16T00:59:03;128.10;2022.40
70593;DHT22;58294;42.988;20.338;2023-03-16T01:01:30;128.10;2048.00
70593;DHT22;58294;42.988;20.338;2023-03-16T01:03:57;128.00;2022.40
70593;DHT22;58294;42.988;20.338;2023-03-16T01:06:24;128.00;2073.60
70593;DHT22;58294;42.988;20.338;2023-03-16T01:08:50;128.00;2048.00
70593;DHT22;58294;42.988;20.338;2023-03-16T01:11:21;103.30;2022.40
70593;DHT22;58294;42.988;20.338;2023-03-16T01:13:47;103.30;2022.40
70593;DHT22;58294;42.988;20.338;2023-03-16T01:16:13;103.30;2048.00
70593;DHT22;58294;42.988;20.338;2023-03-16T01:18:39;128.00;2073.60
70593;DHT22;58294;42.988;20.338;2023-03-16T01:21:06;128.00;2048.00
70593;DHT22;58294;42.988;20.338;2023-03-16T01:23:33;128.00;2048.00
70593;DHT22;58294;42.988;20.338;2023-03-16T01:25:59;128.00;2022.40
70593;DHT22;58294;42.988;20.338;2023-03-16T01:28:27;128.00;2048.00
70593;DHT22;58294;42.988;20.338;2023-03-16T01:30:59;128.00;1996.80
70593;DHT22;58294;42.988;20.338;2023-03-16T01:33:26;128.00;2022.40
70593;DHT22;58294;42.988;20.338;2023-03-16T01:35:56;103.30;1996.80
70593;DHT22;58294;42.988;20.338;2023-03-16T01:38:22;128.00;2048.00
70593;DHT22;58294;42.988;20.338;2023-03-16T01:40:48;128.00;1996.80
70593;DHT22;58294;42.988;20.338;2023-03-16T01:43:16;103.30;1971.20
70593;DHT22;58294;42.988;20.338;2023-03-16T01:46:43;103.30;1971.20
70593;DHT22;58294;42.988;20.338;2023-03-16T01:51:04;128.00;2022.40
70593;DHT22;58294;42.988;20.338;2023-03-16T01:53:32;128.00;2022.40
70593;DHT22;58294;42.988;20.338;2023-03-16T01:55:58;103.30;1996.80
70593;DHT22;58294;42.988;20.338;2023-03-16T01:58:26;103.30;1971.20
70593;DHT22;58294;42.988;20.338;2023-03-16T02:00:52;103.30;1971.20
70593;DHT22;58294;42.988;20.338;2023-03-16T02:03:18;103.20;1971.20
70593;DHT22;58294;42.988;20.338;2023-03-16T02:05:47;103.30;1971.20
70593;DHT22;58294;42.988;20.338;2023-03-16T02:08:17;103.30;1945.60
70593;DHT22;58294;42.988;20.338;2023-03-16T02:10:42;103.20;1971.20
70593;DHT22;58294;42.988;20.338;2023-03-16T02:13:09;103.20;1971.20
70593;DHT22;58294;42.988;20.338;2023-03-16T02:15:35;103.20;1996.80
70593;DHT22;58294;42.988;20.338;2023-03-16T02:18:01;103.20;1971.20
70593;DHT22;58294;42.988;20.338;2023-03-16T02:20:30;103.20;1996.80
70593;DHT22;58294;42.988;20.338;2023-03-16T02:22:58;103.20;1971.20
70593;DHT22;58294;42.988;20.338;2023-03-16T02:25:35;103.20;1945.60
70593;DHT22;58294;42.988;20.338;2023-03-16T02:28:11;103.20;1971.20
70593;DHT22;58294;42.988;20.338;2023-03-16T02:30:40;103.20;1996.80
70593;DHT22;58294;42.988;20.338;2023-03-16T02:33:05;103.30;2022.40
70593;DHT22;58294;42.988;20.338;2023-03-16T02:35:31;128.00;2048.00
70593;DHT22;58294;42.988;20.338;2023-03-16T02:37:57;128.00;2022.40
70593;DHT22;58294;42.988;20.338;2023-03-16T02:40:24;128.10;2022.40
70593;DHT22;58294;42.988;20.338;2023-03-16T02:45:27;128.10;1971.20
70593;DHT22;58294;42.988;20.338;2023-03-16T02:47:57;128.20;1996.80
70593;DHT22;58294;42.988;20.338;2023-03-16T02:50:27;128.10;1945.60
70593;DHT22;58294;42.988;20.338;2023-03-16T02:52:53;128.10;1996.80
70593;DHT22;58294;42.988;20.338;2023-03-16T02:55:19;128.10;1971.20
70593;DHT22;58294;42.988;20.338;2023-03-16T02:57:46;128.10;1920.00
70593;DHT22;58294;42.988;20.338;2023-03-16T03:00:11;128.20;1971.20
70593;DHT22;58294;42.988;20.338;2023-03-16T03:02:42;128.20;1971.20
70593;DHT22;58294;42.988;20.338;2023-03-16T03:05:08;128.20;1971.20
70593;DHT22;58294;42.988;20.338;2023-03-16T03:07:33;128.20;1945.60
70593;DHT22;58294;42.988;20.338;2023-03-16T03:09:59;128.30;1971.20
70593;DHT22;58294;42.988;20.338;2023-03-16T03:12:31;128.30;1971.20
70593;DHT22;58294;42.988;20.338;2023-03-16T03:14:56;128.30;1971.20
70593;DHT22;58294;42.988;20.338;2023-03-16T03:17:22;128.20;1945.60
70593;DHT22;58294;42.988;20.338;2023-03-16T03:19:57;128.30;1894.40
70593;DHT22;58294;42.988;20.338;2023-03-16T03:22:23;128.20;1945.60
70593;DHT22;58294;42.988;20.338;2023-03-16T03:24:50;128.20;1920.00
70593;DHT22;58294;42.988;20.338;2023-03-16T03:27:16;128.30;1971.20
70593;DHT22;58294;42.988;20.338;2023-03-16T03:29:41;128.30;1971.20
70593;DHT22;58294;42.988;20.338;2023-03-16T03:32:07;128.30;1868.80
70593;DHT22;58294;42.988;20.338;2023-03-16T03:34:33;128.30;1945.60
70593;DHT22;58294;42.988;20.338;2023-03-16T03:36:58;128.30;1894.40
70593;DHT22;58294;42.988;20.338;2023-03-16T03:39:24;128.30;1920.00
70593;DHT22;58294;42.988;20.338;2023-03-16T03:41:49;128.20;1894.40
70593;DHT22;58294;42.988;20.338;2023-03-16T03:44:19;128.20;1920.00
70593;DHT22;58294;42.988;20.338;2023-03-16T03:46:45;128.30;1920.00
70593;DHT22;58294;42.988;20.338;2023-03-16T03:49:10;128.30;1920.00
70593;DHT22;58294;42.988;20.338;2023-03-16T03:51:36;128.10;1868.80
70593;DHT22;58294;42.988;20.338;2023-03-16T03:54:01;128.10;1894.40
70593;DHT22;58294;42.988;20.338;2023-03-16T03:56:27;128.10;1894.40
70593;DHT22;58294;42.988;20.338;2023-03-16T03:58:53;128.00;1920.00
70593;DHT22;58294;42.988;20.338;2023-03-16T04:01:18;128.00;1894.40
70593;DHT22;58294;42.988;20.338;2023-03-16T04:03:44;128.00;1920.00
70593;DHT22;58294;42.988;20.338;2023-03-16T04:06:09;128.10;1894.40
70593;DHT22;58294;42.988;20.338;2023-03-16T04:08:35;128.10;1920.00
70593;DHT22;58294;42.988;20.338;2023-03-16T04:11:01;128.10;1894.40
70593;DHT22;58294;42.988;20.338;2023-03-16T04:13:26;128.00;1920.00
70593;DHT22;58294;42.988;20.338;2023-03-16T04:15:55;128.10;1920.00
70593;DHT22;58294;42.988;20.338;2023-03-16T04:18:21;128.10;1894.40
70593;DHT22;58294;42.988;20.338;2023-03-16T04:20:46;128.00;1868.80
70593;DHT22;58294;42.988;20.338;2023-03-16T04:23:12;128.00;1894.40
70593;DHT22;58294;42.988;20.338;2023-03-16T04:25:38;128.10;1894.40
70593;DHT22;58294;42.988;20.338;2023-03-16T04:28:04;128.10;1920.00
70593;DHT22;58294;42.988;20.338;2023-03-16T04:30:29;128.10;1868.80
70593;DHT22;58294;42.988;20.338;2023-03-16T04:32:55;128.10;1868.80
70593;DHT22;58294;42.988;20.338;2023-03-16T04:35:20;128.10;1894.40
70593;DHT22;58294;42.988;20.338;2023-03-16T04:37:46;128.10;1894.40
70593;DHT22;58294;42.988;20.338;2023-03-16T04:40:12;128.10;1920.00
70593;DHT22;58294;42.988;20.338;2023-03-16T04:42:40;128.10;1920.00
70593;DHT22;58294;42.988;20.338;2023-03-16T04:45:06;128.10;1868.80
70593;DHT22;58294;42.988;20.338;2023-03-16T04:47:33;128.10;1868.80
70593;DHT22;58294;42.988;20.338;2023-03-16T04:49:59;128.10;1894.40
70593;DHT22;58294;42.988;20.338;2023-03-16T04:52:25;128.10;1920.00
70593;DHT22;58294;42.988;20.338;2023-03-16T04:54:50;128.10;1920.00
70593;DHT22;58294;42.988;20.338;2023-03-16T04:57:16;128.20;1894.40
70593;DHT22;58294;42.988;20.338;2023-03-16T04:59:43;128.10;1894.40
70593;DHT22;58294;42.988;20.338;2023-03-16T05:02:09;128.20;1920.00
70593;DHT22;58294;42.988;20.338;2023-03-16T05:04:35;128.20;1920.00
70593;DHT22;58294;42.988;20.338;2023-03-16T05:07:00;128.30;1920.00
70593;DHT22;58294;42.988;20.338;2023-03-16T05:09:26;128.40;1920.00
70593;DHT22;58294;42.988;20.338;2023-03-16T05:11:51;128.40;1920.00
70593;DHT22;58294;42.988;20.338;2023-03-16T05:14:17;128.40;1894.40
70593;DHT22;58294;42.988;20.338;2023-03-16T05:16:42;128.50;1868.80
70593;DHT22;58294;42.988;20.338;2023-03-16T05:19:08;128.40;1894.40
70593;DHT22;58294;42.988;20.338;2023-03-16T05:21:33;128.40;1894.40
70593;DHT22;58294;42.988;20.338;2023-03-16T05:24:03;128.30;1868.80
70593;DHT22;58294;42.988;20.338;2023-03-16T05:26:28;128.30;1894.40
70593;DHT22;58294;42.988;20.338;2023-03-16T05:28:54;128.30;1894.40
70593;DHT22;58294;42.988;20.338;2023-03-16T05:31:19;128.30;1894.40
70593;DHT22;58294;42.988;20.338;2023-03-16T05:33:45;128.30;1894.40
70593;DHT22;58294;42.988;20.338;2023-03-16T05:36:11;128.20;1868.80
70593;DHT22;58294;42.988;20.338;2023-03-16T05:38:37;128.20;1894.40
70593;DHT22;58294;42.988;20.338;2023-03-16T05:41:03;128.10;1894.40
70593;DHT22;58294;42.988;20.338;2023-03-16T05:43:29;128.10;1894.40
70593;DHT22;58294;42.988;20.338;2023-03-16T05:45:55;128.20;1920.00
70593;DHT22;58294;42.988;20.338;2023-03-16T05:48:21;128.20;1945.60
70593;DHT22;58294;42.988;20.338;2023-03-16T05:50:50;128.30;1920.00
70593;DHT22;58294;42.988;20.338;2023-03-16T05:53:16;128.30;1920.00
70593;DHT22;58294;42.988;20.338;2023-03-16T05:55:42;128.30;1920.00
70593;DHT22;58294;42.988;20.338;2023-03-16T05:58:07;128.30;1920.00
70593;DHT22;58294;42.988;20.338;2023-03-16T06:00:33;128.20;1894.40
70593;DHT22;58294;42.988;20.338;2023-03-16T06:02:59;128.20;1894.40
70593;DHT22;58294;42.988;20.338;2023-03-16T06:05:25;128.10;1894.40
70593;DHT22;58294;42.988;20.338;2023-03-16T06:07:52;128.10;1894.40
70593;DHT22;58294;42.988;20.338;2023-03-16T06:10:18;128.10;1894.40
70593;DHT22;58294;42.988;20.338;2023-03-16T06:12:44;128.00;1868.80
70593;DHT22;58294;42.988;20.338;2023-03-16T06:15:10;128.00;1894.40
70593;DHT22;58294;42.988;20.338;2023-03-16T06:17:35;128.00;1920.00
70593;DHT22;58294;42.988;20.338;2023-03-16T06:20:01;128.00;1894.40
70593;DHT22;58294;42.988;20.338;2023-03-16T06:22:28;128.00;1920.00
70593;DHT22;58294;42.988;20.338;2023-03-16T06:24:54;128.00;1920.00
70593;DHT22;58294;42.988;20.338;2023-03-16T06:27:20;128.20;1971.20
70593;DHT22;58294;42.988;20.338;2023-03-16T06:29:46;128.20;1894.40
70593;DHT22;58294;42.988;20.338;2023-03-16T06:32:12;128.20;1868.80
70593;DHT22;58294;42.988;20.338;2023-03-16T06:34:38;128.10;1868.80
70593;DHT22;58294;42.988;20.338;2023-03-16T06:37:04;128.10;1894.40
70593;DHT22;58294;42.988;20.338;2023-03-16T06:39:29;128.20;1971.20
70593;DHT22;58294;42.988;20.338;2023-03-16T06:41:55;128.30;1894.40
70593;DHT22;58294;42.988;20.338;2023-03-16T06:44:21;128.30;1920.00
70593;DHT22;58294;42.988;20.338;2023-03-16T06:46:47;128.50;1945.60
70593;DHT22;58294;42.988;20.338;2023-03-16T06:49:13;128.60;1920.00
70593;DHT22;58294;42.988;20.338;2023-03-16T06:51:38;128.60;1843.20
70593;DHT22;58294;42.988;20.338;2023-03-16T06:54:04;128.50;1843.20
70593;DHT22;58294;42.988;20.338;2023-03-16T06:56:29;128.50;1817.60
70593;DHT22;58294;42.988;20.338;2023-03-16T06:58:56;128.40;1817.60
70593;DHT22;58294;42.988;20.338;2023-03-16T07:01:22;128.30;1817.60
70593;DHT22;58294;42.988;20.338;2023-03-16T07:03:48;128.30;1843.20
70593;DHT22;58294;42.988;20.338;2023-03-16T07:06:14;128.20;1868.80
70593;DHT22;58294;42.988;20.338;2023-03-16T07:08:39;128.20;1843.20
70593;DHT22;58294;42.988;20.338;2023-03-16T07:11:07;128.20;1894.40
70593;DHT22;58294;42.988;20.338;2023-03-16T07:13:32;128.20;1868.80
70593;DHT22;58294;42.988;20.338;2023-03-16T07:15:59;128.30;1894.40
70593;DHT22;58294;42.988;20.338;2023-03-16T07:18:25;128.30;1843.20
70593;DHT22;58294;42.988;20.338;2023-03-16T07:20:52;128.20;1868.80
70593;DHT22;58294;42.988;20.338;2023-03-16T07:23:17;128.20;1868.80
70593;DHT22;58294;42.988;20.338;2023-03-16T07:25:43;128.30;1920.00
70593;DHT22;58294;42.988;20.338;2023-03-16T07:28:09;128.50;1920.00
70593;DHT22;58294;42.988;20.338;2023-03-16T07:30:36;128.70;1920.00
70593;DHT22;58294;42.988;20.338;2023-03-16T07:33:02;128.80;1894.40
70593;DHT22;58294;42.988;20.338;2023-03-16T07:35:28;128.80;1817.60
70593;DHT22;58294;42.988;20.338;2023-03-16T07:37:54;128.80;1843.20
70593;DHT22;58294;42.988;20.338;2023-03-16T07:40:19;128.70;1792.00
70593;DHT22;58294;42.988;20.338;2023-03-16T07:42:45;128.50;1792.00
70593;DHT22;58294;42.988;20.338;2023-03-16T07:45:10;128.40;1817.60
70593;DHT22;58294;42.988;20.338;2023-03-16T07:47:36;128.30;1843.20
70593;DHT22;58294;42.988;20.338;2023-03-16T07:50:02;128.40;1894.40
70593;DHT22;58294;42.988;20.338;2023-03-16T07:52:28;128.40;1868.80
70593;DHT22;58294;42.988;20.338;2023-03-16T07:54:53;128.50;1868.80
70593;DHT22;58294;42.988;20.338;2023-03-16T07:57:19;128.50;1868.80
70593;DHT22;58294;42.988;20.338;2023-03-16T07:59:45;128.60;1894.40
70593;DHT22;58294;42.988;20.338;2023-03-16T08:02:15;128.70;1920.00
70593;DHT22;58294;42.988;20.338;2023-03-16T08:04:41;128.80;1920.00
70593;DHT22;58294;42.988;20.338;2023-03-16T08:07:07;128.90;1843.20
70593;DHT22;58294;42.988;20.338;2023-03-16T08:09:33;153.60;1920.00
70593;DHT22;58294;42.988;20.338;2023-03-16T08:12:03;153.60;1843.20
70593;DHT22;58294;42.988;20.338;2023-03-16T08:14:29;153.70;1868.80
70593;DHT22;58294;42.988;20.338;2023-03-16T08:16:55;153.70;1894.40
70593;DHT22;58294;42.988;20.338;2023-03-16T08:19:21;153.80;1817.60
70593;DHT22;58294;42.988;20.338;2023-03-16T08:21:46;153.90;1868.80
70593;DHT22;58294;42.988;20.338;2023-03-16T08:24:13;153.90;1792.00
70593;DHT22;58294;42.988;20.338;2023-03-16T08:26:39;154.00;1843.20
70593;DHT22;58294;42.988;20.338;2023-03-16T08:29:04;154.00;1817.60
70593;DHT22;58294;42.988;20.338;2023-03-16T08:31:30;154.10;1843.20
70593;DHT22;58294;42.988;20.338;2023-03-16T08:33:59;154.10;1843.20
70593;DHT22;58294;42.988;20.338;2023-03-16T08:36:25;154.20;1792.00
70593;DHT22;58294;42.988;20.338;2023-03-16T08:38:52;154.20;1792.00
70593;DHT22;58294;42.988;20.338;2023-03-16T08:41:19;154.20;1766.40
70593;DHT22;58294;42.988;20.338;2023-03-16T08:43:45;154.30;1868.80
70593;DHT22;58294;42.988;20.338;2023-03-16T08:46:11;154.40;1868.80
70593;DHT22;58294;42.988;20.338;2023-03-16T08:48:38;154.50;1766.40
70593;DHT22;58294;42.988;20.338;2023-03-16T08:51:04;179.20;1817.60
70593;DHT22;58294;42.988;20.338;2023-03-16T08:53:30;179.30;1843.20
70593;DHT22;58294;42.988;20.338;2023-03-16T08:58:29;179.40;1817.60
70593;DHT22;58294;42.988;20.338;2023-03-16T09:00:56;179.50;1664.00
70593;DHT22;58294;42.988;20.338;2023-03-16T09:03:22;179.20;1715.20
70593;DHT22;58294;42.988;20.338;2023-03-16T09:05:48;179.20;1664.00
70593;DHT22;58294;42.988;20.338;2023-03-16T09:08:14;179.30;1766.40
70593;DHT22;58294;42.988;20.338;2023-03-16T09:10:39;179.40;1792.00
70593;DHT22;58294;42.988;20.338;2023-03-16T09:13:05;179.50;1766.40
70593;DHT22;58294;42.988;20.338;2023-03-16T09:15:31;179.60;1766.40
70593;DHT22;58294;42.988;20.338;2023-03-16T09:17:57;179.80;1766.40
70593;DHT22;58294;42.988;20.338;2023-03-16T09:20:24;179.80;1715.20
70593;DHT22;58294;42.988;20.338;2023-03-16T09:22:51;179.80;1740.80
70593;DHT22;58294;42.988;20.338;2023-03-16T09:25:17;180.00;1715.20
70593;DHT22;58294;42.988;20.338;2023-03-16T09:27:44;180.00;1715.20
70593;DHT22;58294;42.988;20.338;2023-03-16T09:30:09;180.10;1638.40
70593;DHT22;58294;42.988;20.338;2023-03-16T09:32:35;180.10;1612.80
70593;DHT22;58294;42.988;20.338;2023-03-16T09:35:01;180.10;1664.00
70593;DHT22;58294;42.988;20.338;2023-03-16T09:37:27;204.80;1689.60
70593;DHT22;58294;42.988;20.338;2023-03-16T09:39:53;204.80;1689.60
70593;DHT22;58294;42.988;20.338;2023-03-16T09:47:10;204.90;1638.40
70593;DHT22;58294;42.988;20.338;2023-03-16T09:49:38;204.90;1664.00
70593;DHT22;58294;42.988;20.338;2023-03-16T09:52:14;205.10;1715.20
70593;DHT22;58294;42.988;20.338;2023-03-16T09:57:30;205.40;1664.00
70593;DHT22;58294;42.988;20.338;2023-03-16T09:59:58;205.40;1715.20
70593;DHT22;58294;42.988;20.338;2023-03-16T10:05:16;205.50;1587.20
70593;DHT22;58294;42.988;20.338;2023-03-16T10:13:00;205.60;1612.80
70593;DHT22;58294;42.988;20.338;2023-03-16T10:15:28;205.50;1561.60
70593;DHT22;58294;42.988;20.338;2023-03-16T10:17:59;205.60;1638.40
70593;DHT22;58294;42.988;20.338;2023-03-16T10:20:27;230.40;1638.40
70593;DHT22;58294;42.988;20.338;2023-03-16T10:22:57;230.50;1587.20
70593;DHT22;58294;42.988;20.338;2023-03-16T10:25:38;230.50;1587.20
70593;DHT22;58294;42.988;20.338;2023-03-16T10:28:09;230.40;1561.60
70593;DHT22;58294;42.988;20.338;2023-03-16T10:30:35;230.40;1536.00
70593;DHT22;58294;42.988;20.338;2023-03-16T10:33:02;230.40;1561.60
70593;DHT22;58294;42.988;20.338;2023-03-16T10:35:50;230.40;1561.60
70593;DHT22;58294;42.988;20.338;2023-03-16T10:38:30;230.40;1536.00
70593;DHT22;58294;42.988;20.338;2023-03-16T10:40:58;230.50;1587.20
70593;DHT22;58294;42.988;20.338;2023-03-16T10:43:24;230.60;1561.60
70593;DHT22;58294;42.988;20.338;2023-03-16T10:45:49;230.60;1510.40
70593;DHT22;58294;42.988;20.338;2023-03-16T10:48:16;230.60;1536.00
70593;DHT22;58294;42.988;20.338;2023-03-16T10:50:47;230.60;1536.00
70593;DHT22;58294;42.988;20.338;2023-03-16T10:53:20;230.50;1536.00
70593;DHT22;58294;42.988;20.338;2023-03-16T10:55:48;230.60;1484.80
70593;DHT22;58294;42.988;20.338;2023-03-16T10:58:21;230.80;1612.80
70593;DHT22;58294;42.988;20.338;2023-03-16T11:00:48;230.80;1459.20
70593;DHT22;58294;42.988;20.338;2023-03-16T11:03:20;231.00;1510.40
70593;DHT22;58294;42.988;20.338;2023-03-16T11:05:54;231.20;1612.80
70593;DHT22;58294;42.988;20.338;2023-03-16T11:08:23;231.30;1510.40
70593;DHT22;58294;42.988;20.338;2023-03-16T11:10:54;231.30;1484.80
70593;DHT22;58294;42.988;20.338;2023-03-16T11:13:23;231.20;1356.80
70593;DHT22;58294;42.988;20.338;2023-03-16T11:15:53;231.00;1433.60
70593;DHT22;58294;42.988;20.338;2023-03-16T11:18:24;231.00;1433.60
70593;DHT22;58294;42.988;20.338;2023-03-16T11:20:51;231.00;1536.00
70593;DHT22;58294;42.988;20.338;2023-03-16T11:23:17;230.90;1382.40
70593;DHT22;58294;42.988;20.338;2023-03-16T11:25:46;230.90;1484.80
70593;DHT22;58294;42.988;20.338;2023-03-16T11:31:01;231.00;1536.00
70593;DHT22;58294;42.988;20.338;2023-03-16T11:33:28;231.00;1459.20
70593;DHT22;58294;42.988;20.338;2023-03-16T11:38:26;231.20;1510.40
70593;DHT22;58294;42.988;20.338;2023-03-16T11:40:57;231.30;1587.20
70593;DHT22;58294;42.988;20.338;2023-03-16T12:06:44;282.20;1331.20
70593;DHT22;58294;42.988;20.338;2023-03-16T12:17:02;281.90;1356.80
70593;DHT22;58294;42.988;20.338;2023-03-16T12:22:28;256.70;1280.00
70593;DHT22;58294;42.988;20.338;2023-03-16T12:24:47;256.50;1305.60
70593;DHT22;58294;42.988;20.338;2023-03-16T12:27:19;256.30;1280.00
70593;DHT22;58294;42.988;20.338;2023-03-16T12:29:50;256.20;1356.80
70593;DHT22;58294;42.988;20.338;2023-03-16T12:32:34;256.00;1280.00
70593;DHT22;58294;42.988;20.338;2023-03-16T12:35:20;231.30;1331.20
70593;DHT22;58294;42.988;20.338;2023-03-16T12:45:41;230.70;1382.40
70593;DHT22;58294;42.988;20.338;2023-03-16T12:48:10;230.70;1382.40
70593;DHT22;58294;42.988;20.338;2023-03-16T12:50:51;230.70;1356.80
70593;DHT22;58294;42.988;20.338;2023-03-16T12:53:39;230.60;1305.60
70593;DHT22;58294;42.988;20.338;2023-03-16T12:56:07;230.40;1331.20
70593;DHT22;58294;42.988;20.338;2023-03-16T12:58:39;205.60;1305.60
70593;DHT22;58294;42.988;20.338;2023-03-16T13:01:06;205.50;1331.20
70593;DHT22;58294;42.988;20.338;2023-03-16T13:03:32;205.50;1331.20
70593;DHT22;58294;42.988;20.338;2023-03-16T13:05:58;205.60;1382.40
70593;DHT22;58294;42.988;20.338;2023-03-16T13:08:25;205.60;1305.60
70593;DHT22;58294;42.988;20.338;2023-03-16T13:10:58;205.70;1382.40
70593;DHT22;58294;42.988;20.338;2023-03-16T13:13:25;230.40;1356.80
70593;DHT22;58294;42.988;20.338;2023-03-16T13:16:00;230.40;1356.80
70593;DHT22;58294;42.988;20.338;2023-03-16T13:18:32;230.50;1382.40
70593;DHT22;58294;42.988;20.338;2023-03-16T13:20:59;230.70;1382.40
70593;DHT22;58294;42.988;20.338;2023-03-16T13:23:27;230.90;1408.00
70593;DHT22;58294;42.988;20.338;2023-03-16T13:28:29;230.70;1305.60
70593;DHT22;58294;42.988;20.338;2023-03-16T13:30:55;230.60;1331.20
70593;DHT22;58294;42.988;20.338;2023-03-16T13:33:31;230.70;1331.20
70593;DHT22;58294;42.988;20.338;2023-03-16T13:35:58;230.80;1356.80
70593;DHT22;58294;42.988;20.338;2023-03-16T13:38:25;230.90;1331.20
70593;DHT22;58294;42.988;20.338;2023-03-16T13:40:54;230.90;1305.60
70593;DHT22;58294;42.988;20.338;2023-03-16T13:43:22;230.90;1305.60
70593;DHT22;58294;42.988;20.338;2023-03-16T13:45:48;230.90;1305.60
70593;DHT22;58294;42.988;20.338;2023-03-16T13:48:14;230.80;1203.20
70593;DHT22;58294;42.988;20.338;2023-03-16T13:50:41;230.70;1280.00
70593;DHT22;58294;42.988;20.338;2023-03-16T13:53:15;230.70;1280.00
70593;DHT22;58294;42.988;20.338;2023-03-16T13:55:42;230.60;1280.00
70593;DHT22;58294;42.988;20.338;2023-03-16T14:00:59;230.40;1280.00
70593;DHT22;58294;42.988;20.338;2023-03-16T14:03:36;230.40;1305.60
70593;DHT22;58294;42.988;20.338;2023-03-16T14:06:05;230.40;1305.60
70593;DHT22;58294;42.988;20.338;2023-03-16T14:08:31;230.60;1331.20
70593;DHT22;58294;42.988;20.338;2023-03-16T14:10:58;230.70;1305.60
70593;DHT22;58294;42.988;20.338;2023-03-16T14:15:51;230.50;1254.40
70593;DHT22;58294;42.988;20.338;2023-03-16T14:18:18;230.40;1254.40
70593;DHT22;58294;42.988;20.338;2023-03-16T14:20:54;230.40;1305.60
70593;DHT22;58294;42.988;20.338;2023-03-16T14:23:20;205.60;1280.00
70593;DHT22;58294;42.988;20.338;2023-03-16T14:25:47;205.50;1305.60
70593;DHT22;58294;42.988;20.338;2023-03-16T14:28:13;205.50;1280.00
70593;DHT22;58294;42.988;20.338;2023-03-16T14:30:48;205.50;1331.20
70593;DHT22;58294;42.988;20.338;2023-03-16T14:33:24;205.40;1305.60
70593;DHT22;58294;42.988;20.338;2023-03-16T14:35:53;205.50;1331.20
70593;DHT22;58294;42.988;20.338;2023-03-16T14:38:30;205.50;1331.20
70593;DHT22;58294;42.988;20.338;2023-03-16T14:43:54;205.50;1331.20
70593;DHT22;58294;42.988;20.338;2023-03-16T14:46:25;205.50;1331.20
70593;DHT22;58294;42.988;20.338;2023-03-16T14:48:58;205.50;1305.60
70593;DHT22;58294;42.988;20.338;2023-03-16T14:51:24;205.50;1331.20
70593;DHT22;58294;42.988;20.338;2023-03-16T14:53:50;205.40;1305.60
70593;DHT22;58294;42.988;20.338;2023-03-16T14:56:15;205.40;1331.20
70593;DHT22;58294;42.988;20.338;2023-03-16T14:58:41;205.40;1331.20
70593;DHT22;58294;42.988;20.338;2023-03-16T15:01:10;205.40;1305.60
70593;DHT22;58294;42.988;20.338;2023-03-16T15:03:37;205.30;1331.20
70593;DHT22;58294;42.988;20.338;2023-03-16T15:06:03;205.40;1331.20
70593;DHT22;58294;42.988;20.338;2023-03-16T15:08:30;205.40;1356.80
70593;DHT22;58294;42.988;20.338;2023-03-16T15:10:58;205.40;1331.20
70593;DHT22;58294;42.988;20.338;2023-03-16T15:13:25;205.30;1305.60
70593;DHT22;58294;42.988;20.338;2023-03-16T15:16:06;205.10;1280.00
70593;DHT22;58294;42.988;20.338;2023-03-16T15:18:34;204.80;1305.60
70593;DHT22;58294;42.988;20.338;2023-03-16T15:21:00;180.10;1331.20
70593;DHT22;58294;42.988;20.338;2023-03-16T15:23:26;180.10;1356.80
70593;DHT22;58294;42.988;20.338;2023-03-16T15:25:53;204.80;1356.80
70593;DHT22;58294;42.988;20.338;2023-03-16T15:28:25;204.90;1382.40
70593;DHT22;58294;42.988;20.338;2023-03-16T15:30:51;204.90;1356.80
70593;DHT22;58294;42.988;20.338;2023-03-16T15:33:18;204.80;1331.20
70593;DHT22;58294;42.988;20.338;2023-03-16T15:35:44;204.80;1331.20
70593;DHT22;58294;42.988;20.338;2023-03-16T15:38:15;204.80;1331.20
70593;DHT22;58294;42.988;20.338;2023-03-16T15:40:42;180.10;1331.20
70593;DHT22;58294;42.988;20.338;2023-03-16T15:43:09;180.10;1331.20
70593;DHT22;58294;42.988;20.338;2023-03-16T15:45:35;180.10;1356.80
70593;DHT22;58294;42.988;20.338;2023-03-16T15:48:01;180.10;1382.40
70593;DHT22;58294;42.988;20.338;2023-03-16T15:50:27;204.80;1356.80
70593;DHT22;58294;42.988;20.338;2023-03-16T15:52:54;204.90;1382.40
70593;DHT22;58294;42.988;20.338;2023-03-16T15:55:22;204.90;1356.80
70593;DHT22;58294;42.988;20.338;2023-03-16T15:57:51;204.90;1356.80